createdAt,value
2023-04-27T00:00:05.330Z,76.15
2023-04-27T00:01:05.333Z,76.82
2023-04-27T00:02:05.363Z,76.44
2023-04-27T00:03:05.685Z,75.87
2023-04-27T00:04:05.494Z,75.11
2023-04-27T00:05:05.580Z,75.21
2023-04-27T00:06:05.543Z,75.31
2023-04-27T00:07:05.384Z,75.11
2023-04-27T00:08:05.401Z,75.31
2023-04-27T00:09:05.397Z,75.02
2023-04-27T00:10:05.406Z,74.73
2023-04-27T00:11:05.414Z,74.45
2023-04-27T00:12:05.446Z,74.26
2023-04-27T00:13:05.440Z,74.35
2023-04-27T00:14:05.434Z,74.35
2023-04-27T00:15:05.454Z,74.16
2023-04-27T00:16:05.490Z,73.97
2023-04-27T00:17:05.457Z,74.07
2023-04-27T00:18:05.497Z,74.92
2023-04-27T00:19:05.477Z,74.92
2023-04-27T00:20:05.486Z,75.02
2023-04-27T00:21:05.488Z,75.02
2023-04-27T00:22:05.493Z,75.11
2023-04-27T00:23:05.504Z,75.49
2023-04-27T00:24:05.523Z,75.68
2023-04-27T00:25:05.519Z,75.59
2023-04-27T00:26:05.521Z,75.78
2023-04-27T00:27:05.530Z,75.87
2023-04-27T00:28:05.558Z,76.63
2023-04-27T00:29:05.567Z,76.73
2023-04-27T00:30:05.561Z,76.15
2023-04-27T00:31:05.562Z,75.87
2023-04-27T00:32:05.617Z,76.25
2023-04-27T00:33:05.603Z,76.82
2023-04-27T00:34:05.587Z,76.63
2023-04-27T00:35:05.595Z,76.82
2023-04-27T00:36:05.608Z,77.20
2023-04-27T00:37:05.631Z,77.20
2023-04-27T00:38:05.614Z,77.20
2023-04-27T00:39:05.648Z,76.82
2023-04-27T00:40:05.624Z,77.11
2023-04-27T00:41:05.648Z,77.20
2023-04-27T00:42:05.646Z,77.20
2023-04-27T00:43:05.652Z,77.01
2023-04-27T00:44:05.682Z,77.20
2023-04-27T00:45:05.669Z,77.01
2023-04-27T00:46:05.738Z,76.73
2023-04-27T00:47:05.691Z,76.34
2023-04-27T00:48:05.733Z,75.96
2023-04-27T00:49:05.701Z,76.06
2023-04-27T00:50:05.703Z,76.34
2023-04-27T00:51:05.715Z,76.25
2023-04-27T00:52:05.735Z,76.06
2023-04-27T00:53:05.731Z,76.15
2023-04-27T00:54:05.734Z,76.25
2023-04-27T00:55:05.749Z,76.15
2023-04-27T00:56:05.748Z,75.78
2023-04-27T00:57:05.759Z,75.40
2023-04-27T00:58:05.764Z,75.31
2023-04-27T00:59:05.777Z,75.11
2023-04-27T01:00:05.851Z,75.40
2023-04-27T01:01:05.810Z,76.06
2023-04-27T01:02:05.879Z,76.15
2023-04-27T01:03:05.945Z,76.15
2023-04-27T01:04:06.116Z,76.82
2023-04-27T01:05:05.820Z,75.87
2023-04-27T01:06:05.825Z,75.49
2023-04-27T01:07:05.839Z,75.68
2023-04-27T01:08:05.848Z,75.87
2023-04-27T01:09:05.860Z,75.87
2023-04-27T01:10:05.855Z,76.73
2023-04-27T01:11:05.862Z,76.82
2023-04-27T01:12:05.884Z,76.82
2023-04-27T01:13:05.873Z,77.29
2023-04-27T01:14:05.892Z,76.54
2023-04-27T01:15:05.898Z,76.73
2023-04-27T01:16:05.921Z,76.63
2023-04-27T01:17:06.033Z,76.44
2023-04-27T01:18:05.931Z,76.73
2023-04-27T01:19:05.922Z,76.63
2023-04-27T01:20:05.927Z,75.96
2023-04-27T01:21:05.939Z,76.44
2023-04-27T01:22:05.943Z,76.06
2023-04-27T01:23:05.949Z,75.96
2023-04-27T01:24:05.958Z,75.96
2023-04-27T01:25:05.990Z,75.78
2023-04-27T01:26:05.970Z,76.06
2023-04-27T01:27:05.989Z,76.25
2023-04-27T01:28:05.992Z,76.25
2023-04-27T01:29:06.000Z,76.25
2023-04-27T01:30:06.004Z,76.73
2023-04-27T01:31:06.032Z,76.82
2023-04-27T01:32:06.041Z,76.63
2023-04-27T01:33:06.069Z,77.20
2023-04-27T01:34:06.041Z,77.01
2023-04-27T01:35:06.075Z,76.63
2023-04-27T01:36:06.041Z,76.73
2023-04-27T01:37:06.060Z,76.73
2023-04-27T01:38:06.059Z,77.20
2023-04-27T01:39:06.075Z,77.48
2023-04-27T01:40:06.076Z,77.58
2023-04-27T01:41:06.080Z,77.96
2023-04-27T01:42:06.098Z,77.29
2023-04-27T01:43:06.099Z,77.20
2023-04-27T01:44:06.107Z,76.63
2023-04-27T01:45:06.127Z,76.92
2023-04-27T01:46:06.147Z,77.20
2023-04-27T01:47:06.126Z,77.58
2023-04-27T01:48:06.220Z,77.35
2023-04-27T01:49:06.144Z,77.35
2023-04-27T01:50:06.154Z,77.06
2023-04-27T01:51:06.197Z,77.35
2023-04-27T01:52:06.172Z,77.45
2023-04-27T01:53:06.170Z,78.02
2023-04-27T01:54:06.190Z,78.02
2023-04-27T01:55:06.188Z,78.02
2023-04-27T01:56:06.196Z,77.73
2023-04-27T01:57:06.224Z,78.20
2023-04-27T01:58:06.221Z,78.02
2023-04-27T01:59:06.238Z,78.02
2023-04-27T02:00:06.232Z,77.64
2023-04-27T02:01:06.266Z,77.92
2023-04-27T02:02:06.316Z,77.45
2023-04-27T02:03:06.404Z,77.35
2023-04-27T02:04:06.454Z,77.25
2023-04-27T02:05:06.260Z,76.50
2023-04-27T02:06:06.279Z,76.21
2023-04-27T02:07:06.335Z,75.87
2023-04-27T02:08:06.307Z,75.59
2023-04-27T02:09:06.322Z,75.40
2023-04-27T02:10:06.301Z,75.21
2023-04-27T02:11:06.319Z,75.49
2023-04-27T02:12:06.316Z,75.02
2023-04-27T02:13:06.369Z,75.02
2023-04-27T02:14:06.340Z,75.31
2023-04-27T02:15:06.344Z,75.49
2023-04-27T02:16:06.485Z,75.11
2023-04-27T02:17:06.345Z,75.68
2023-04-27T02:18:06.402Z,75.68
2023-04-27T02:19:06.367Z,75.68
2023-04-27T02:20:06.412Z,75.11
2023-04-27T02:21:06.470Z,75.78
2023-04-27T02:22:06.387Z,76.06
2023-04-27T02:23:06.392Z,75.49
2023-04-27T02:24:06.410Z,75.64
2023-04-27T02:25:06.409Z,75.49
2023-04-27T02:26:06.427Z,75.87
2023-04-27T02:27:06.479Z,75.78
2023-04-27T02:28:06.433Z,75.55
2023-04-27T02:29:06.456Z,75.49
2023-04-27T02:30:06.448Z,76.06
2023-04-27T02:31:06.471Z,75.87
2023-04-27T02:32:06.465Z,75.55
2023-04-27T02:33:06.498Z,75.55
2023-04-27T02:34:06.484Z,76.06
2023-04-27T02:35:06.491Z,76.21
2023-04-27T02:36:06.520Z,76.12
2023-04-27T02:37:06.495Z,76.21
2023-04-27T02:38:06.504Z,76.21
2023-04-27T02:39:06.518Z,76.21
2023-04-27T02:40:06.528Z,76.21
2023-04-27T02:41:06.525Z,75.84
2023-04-27T02:42:06.555Z,76.78
2023-04-27T02:43:06.541Z,76.59
2023-04-27T02:44:06.590Z,76.97
2023-04-27T02:45:06.555Z,76.31
2023-04-27T02:46:06.570Z,76.40
2023-04-27T02:47:06.597Z,76.03
2023-04-27T02:48:06.607Z,75.84
2023-04-27T02:49:06.583Z,75.74
2023-04-27T02:50:06.598Z,76.12
2023-04-27T02:51:06.621Z,75.93
2023-04-27T02:52:06.630Z,76.03
2023-04-27T02:53:06.611Z,76.21
2023-04-27T02:54:06.640Z,76.78
2023-04-27T02:55:06.632Z,76.59
2023-04-27T02:56:06.639Z,76.31
2023-04-27T02:57:06.641Z,75.74
2023-04-27T02:58:06.652Z,76.03
2023-04-27T02:59:06.663Z,75.55
2023-04-27T03:00:06.668Z,75.64
2023-04-27T03:01:06.730Z,75.87
2023-04-27T03:02:06.729Z,75.11
2023-04-27T03:03:06.898Z,75.21
2023-04-27T03:04:06.913Z,75.11
2023-04-27T03:05:06.700Z,75.40
2023-04-27T03:06:06.710Z,75.11
2023-04-27T03:07:06.718Z,76.06
2023-04-27T03:08:06.774Z,76.03
2023-04-27T03:09:06.745Z,75.45
2023-04-27T03:10:06.740Z,75.93
2023-04-27T03:11:06.745Z,76.03
2023-04-27T03:12:06.758Z,75.31
2023-04-27T03:13:06.775Z,75.11
2023-04-27T03:14:06.772Z,75.17
2023-04-27T03:15:06.774Z,75.11
2023-04-27T03:16:06.803Z,75.55
2023-04-27T03:17:06.789Z,75.74
2023-04-27T03:18:06.834Z,75.45
2023-04-27T03:19:06.817Z,75.45
2023-04-27T03:20:06.818Z,75.64
2023-04-27T03:21:06.820Z,75.55
2023-04-27T03:22:06.836Z,75.93
2023-04-27T03:23:06.854Z,75.64
2023-04-27T03:24:06.868Z,76.03
2023-04-27T03:25:06.854Z,76.21
2023-04-27T03:26:06.883Z,76.03
2023-04-27T03:27:06.864Z,75.84
2023-04-27T03:28:06.871Z,76.68
2023-04-27T03:29:06.880Z,76.68
2023-04-27T03:30:06.886Z,76.59
2023-04-27T03:31:06.891Z,76.59
2023-04-27T03:32:06.988Z,77.06
2023-04-27T03:33:06.927Z,77.16
2023-04-27T03:34:06.917Z,77.16
2023-04-27T03:35:06.922Z,77.54
2023-04-27T03:36:06.933Z,77.64
2023-04-27T03:37:06.950Z,78.11
2023-04-27T03:38:06.962Z,77.35
2023-04-27T03:39:06.961Z,77.92
2023-04-27T03:40:07.157Z,77.45
2023-04-27T03:41:06.967Z,77.35
2023-04-27T03:42:06.979Z,76.97
2023-04-27T03:43:06.986Z,77.06
2023-04-27T03:44:06.993Z,77.16
2023-04-27T03:45:07.000Z,77.16
2023-04-27T03:46:07.046Z,77.35
2023-04-27T03:47:07.009Z,77.35
2023-04-27T03:48:07.091Z,76.97
2023-04-27T03:49:07.023Z,76.68
2023-04-27T03:50:07.056Z,77.06
2023-04-27T03:51:07.039Z,77.16
2023-04-27T03:52:07.049Z,77.16
2023-04-27T03:53:07.064Z,76.87
2023-04-27T03:54:07.068Z,77.16
2023-04-27T03:55:07.094Z,77.06
2023-04-27T03:56:07.094Z,77.06
2023-04-27T03:57:07.078Z,77.35
2023-04-27T03:58:07.091Z,77.92
2023-04-27T03:59:07.099Z,78.02
2023-04-27T04:00:07.112Z,77.92
2023-04-27T04:01:07.109Z,78.11
2023-04-27T04:02:07.158Z,77.64
2023-04-27T04:03:07.368Z,77.73
2023-04-27T04:04:07.296Z,77.83
2023-04-27T04:05:07.225Z,77.83
2023-04-27T04:06:07.161Z,78.02
2023-04-27T04:07:07.156Z,78.11
2023-04-27T04:08:07.194Z,78.49
2023-04-27T04:09:07.162Z,78.02
2023-04-27T04:10:07.181Z,77.83
2023-04-27T04:11:07.184Z,77.73
2023-04-27T04:12:07.210Z,77.92
2023-04-27T04:13:07.201Z,77.92
2023-04-27T04:14:07.206Z,77.92
2023-04-27T04:15:07.210Z,77.83
2023-04-27T04:16:07.272Z,77.54
2023-04-27T04:17:07.226Z,77.25
2023-04-27T04:18:07.260Z,76.40
2023-04-27T04:19:07.251Z,76.68
2023-04-27T04:20:07.251Z,76.68
2023-04-27T04:21:07.254Z,77.64
2023-04-27T04:22:07.262Z,78.02
2023-04-27T04:23:07.270Z,78.02
2023-04-27T04:24:07.285Z,77.25
2023-04-27T04:25:07.282Z,77.45
2023-04-27T04:26:07.294Z,77.16
2023-04-27T04:27:07.301Z,76.59
2023-04-27T04:28:07.332Z,76.68
2023-04-27T04:29:08.379Z,76.03
2023-04-27T04:30:07.327Z,75.07
2023-04-27T04:31:07.370Z,74.88
2023-04-27T04:32:07.340Z,74.41
2023-04-27T04:33:07.361Z,74.51
2023-04-27T04:34:07.349Z,74.88
2023-04-27T04:35:07.350Z,74.79
2023-04-27T04:36:07.362Z,74.69
2023-04-27T04:37:07.363Z,74.60
2023-04-27T04:38:07.376Z,74.69
2023-04-27T04:39:07.376Z,74.98
2023-04-27T04:40:07.391Z,74.69
2023-04-27T04:41:07.430Z,75.07
2023-04-27T04:42:07.403Z,74.69
2023-04-27T04:43:07.408Z,75.07
2023-04-27T04:44:07.468Z,75.45
2023-04-27T04:45:07.490Z,75.26
2023-04-27T04:46:07.476Z,75.93
2023-04-27T04:47:07.451Z,75.74
2023-04-27T04:48:07.469Z,75.84
2023-04-27T04:49:07.450Z,75.45
2023-04-27T04:50:07.455Z,75.17
2023-04-27T04:51:07.474Z,75.17
2023-04-27T04:52:07.488Z,75.26
2023-04-27T04:53:07.477Z,75.26
2023-04-27T04:54:07.488Z,75.07
2023-04-27T04:55:07.492Z,75.17
2023-04-27T04:56:07.520Z,74.32
2023-04-27T04:57:07.518Z,74.22
2023-04-27T04:58:07.526Z,74.32
2023-04-27T04:59:07.531Z,74.32
2023-04-27T05:00:07.552Z,74.13
2023-04-27T05:01:07.576Z,73.94
2023-04-27T05:02:07.544Z,74.41
2023-04-27T05:03:07.828Z,73.27
2023-04-27T05:04:07.741Z,72.99
2023-04-27T05:05:07.565Z,72.52
2023-04-27T05:06:07.572Z,72.33
2023-04-27T05:07:07.587Z,72.14
2023-04-27T05:08:07.603Z,72.14
2023-04-27T05:09:07.605Z,72.23
2023-04-27T05:10:07.619Z,72.42
2023-04-27T05:11:07.608Z,72.71
2023-04-27T05:12:07.653Z,73.18
2023-04-27T05:13:07.618Z,72.80
2023-04-27T05:14:07.652Z,73.18
2023-04-27T05:15:07.670Z,73.08
2023-04-27T05:16:07.837Z,72.42
2023-04-27T05:17:07.655Z,72.23
2023-04-27T05:18:07.712Z,72.71
2023-04-27T05:19:07.670Z,72.42
2023-04-27T05:20:07.702Z,72.52
2023-04-27T05:21:07.675Z,71.85
2023-04-27T05:22:07.693Z,71.66
2023-04-27T05:23:07.692Z,72.14
2023-04-27T05:24:07.704Z,71.57
2023-04-27T05:25:07.709Z,71.57
2023-04-27T05:26:07.716Z,71.47
2023-04-27T05:27:07.727Z,71.47
2023-04-27T05:28:07.729Z,71.66
2023-04-27T05:29:07.735Z,71.95
2023-04-27T05:30:07.745Z,72.14
2023-04-27T05:31:07.752Z,72.23
2023-04-27T05:32:07.841Z,72.04
2023-04-27T05:33:07.797Z,71.85
2023-04-27T05:34:07.770Z,72.23
2023-04-27T05:35:07.777Z,72.33
2023-04-27T05:36:07.810Z,72.14
2023-04-27T05:37:07.809Z,72.23
2023-04-27T05:38:07.800Z,72.42
2023-04-27T05:39:07.824Z,71.47
2023-04-27T05:40:07.821Z,71.28
2023-04-27T05:41:07.827Z,70.90
2023-04-27T05:42:07.837Z,71.00
2023-04-27T05:43:07.841Z,71.38
2023-04-27T05:44:07.847Z,71.38
2023-04-27T05:45:07.851Z,72.04
2023-04-27T05:46:07.897Z,71.76
2023-04-27T05:47:07.860Z,71.89
2023-04-27T05:48:07.952Z,71.38
2023-04-27T05:49:07.886Z,71.47
2023-04-27T05:50:07.892Z,71.28
2023-04-27T05:51:07.890Z,71.47
2023-04-27T05:52:07.902Z,71.28
2023-04-27T05:53:07.918Z,71.57
2023-04-27T05:54:07.946Z,71.57
2023-04-27T05:55:07.934Z,71.47
2023-04-27T05:56:07.934Z,71.76
2023-04-27T05:57:07.935Z,72.33
2023-04-27T05:58:09.174Z,72.55
2023-04-27T05:59:07.970Z,72.45
2023-04-27T06:00:07.974Z,72.45
2023-04-27T06:01:07.981Z,73.31
2023-04-27T06:02:08.047Z,74.64
2023-04-27T06:03:08.140Z,75.11
2023-04-27T06:04:08.062Z,72.45
2023-04-27T06:05:08.054Z,71.41
2023-04-27T06:06:08.002Z,70.94
2023-04-27T06:07:08.022Z,70.94
2023-04-27T06:08:08.021Z,70.65
2023-04-27T06:09:08.043Z,70.47
2023-04-27T06:10:08.041Z,71.89
2023-04-27T06:11:08.047Z,72.17
2023-04-27T06:12:08.049Z,73.12
2023-04-27T06:13:08.060Z,72.08
2023-04-27T06:14:08.061Z,71.60
2023-04-27T06:15:08.073Z,71.36
2023-04-27T06:16:08.227Z,71.45
2023-04-27T06:17:08.088Z,71.73
2023-04-27T06:18:08.144Z,70.88
2023-04-27T06:19:08.102Z,69.27
2023-04-27T06:20:08.130Z,68.57
2023-04-27T06:21:08.119Z,68.70
2023-04-27T06:22:08.122Z,68.23
2023-04-27T06:23:08.135Z,68.60
2023-04-27T06:24:08.140Z,68.57
2023-04-27T06:25:08.154Z,68.51
2023-04-27T06:26:08.152Z,68.57
2023-04-27T06:27:08.168Z,68.00
2023-04-27T06:28:08.163Z,68.48
2023-04-27T06:29:08.256Z,67.43
2023-04-27T06:30:08.183Z,67.62
2023-04-27T06:31:08.229Z,68.19
2023-04-27T06:32:08.234Z,68.38
2023-04-27T06:33:08.267Z,68.23
2023-04-27T06:34:08.209Z,67.75
2023-04-27T06:35:08.227Z,68.57
2023-04-27T06:36:08.277Z,68.38
2023-04-27T06:37:08.251Z,67.46
2023-04-27T06:38:08.349Z,67.18
2023-04-27T06:39:08.251Z,66.89
2023-04-27T06:40:08.264Z,66.99
2023-04-27T06:41:08.262Z,68.13
2023-04-27T06:42:08.280Z,67.46
2023-04-27T06:43:08.285Z,67.27
2023-04-27T06:44:08.287Z,67.27
2023-04-27T06:45:08.298Z,67.75
2023-04-27T06:46:08.313Z,68.51
2023-04-27T06:47:08.309Z,67.65
2023-04-27T06:48:08.331Z,67.27
2023-04-27T06:49:08.324Z,68.04
2023-04-27T06:50:08.334Z,69.36
2023-04-27T06:51:08.365Z,70.98
2023-04-27T06:52:08.426Z,72.11
2023-04-27T06:53:08.368Z,71.36
2023-04-27T06:54:08.367Z,70.82
2023-04-27T06:55:08.377Z,70.25
2023-04-27T06:56:08.377Z,69.87
2023-04-27T06:57:08.392Z,70.35
2023-04-27T06:58:08.392Z,70.44
2023-04-27T06:59:08.402Z,69.96
2023-04-27T07:00:08.410Z,69.87
2023-04-27T07:01:08.454Z,68.92
2023-04-27T07:02:08.431Z,69.40
2023-04-27T07:03:08.547Z,69.59
2023-04-27T07:04:08.503Z,68.64
2023-04-27T07:05:08.452Z,69.30
2023-04-27T07:06:08.464Z,69.68
2023-04-27T07:07:08.468Z,69.11
2023-04-27T07:08:09.115Z,69.30
2023-04-27T07:09:19.946Z,69.49
2023-04-27T07:10:08.484Z,68.96
2023-04-27T07:11:08.498Z,69.81
2023-04-27T07:12:08.507Z,69.05
2023-04-27T07:13:09.544Z,68.48
2023-04-27T07:14:08.515Z,68.39
2023-04-27T07:15:08.531Z,68.48
2023-04-27T07:16:08.584Z,68.39
2023-04-27T07:17:08.545Z,67.34
2023-04-27T07:18:08.802Z,69.34
2023-04-27T07:19:08.568Z,70.19
2023-04-27T07:20:08.620Z,69.91
2023-04-27T07:21:08.596Z,69.43
2023-04-27T07:22:08.584Z,68.48
2023-04-27T07:23:08.597Z,67.15
2023-04-27T07:24:08.620Z,69.05
2023-04-27T07:25:08.610Z,69.81
2023-04-27T07:26:08.622Z,68.48
2023-04-27T07:27:08.623Z,68.58
2023-04-27T07:28:08.666Z,67.72
2023-04-27T07:29:22.965Z,68.48
2023-04-27T07:30:08.649Z,69.53
2023-04-27T07:31:08.656Z,70.23
2023-04-27T07:32:09.020Z,68.96
2023-04-27T07:33:08.711Z,68.99
2023-04-27T07:34:08.685Z,70.79
2023-04-27T07:35:08.692Z,71.66
2023-04-27T07:36:08.696Z,71.08
2023-04-27T07:37:08.709Z,69.85
2023-04-27T07:38:08.733Z,69.46
2023-04-27T07:39:08.725Z,71.75
2023-04-27T07:40:08.750Z,70.61
2023-04-27T07:41:08.743Z,69.85
2023-04-27T07:42:08.755Z,70.99
2023-04-27T07:43:08.778Z,69.56
2023-04-27T07:44:08.765Z,70.04
2023-04-27T07:45:08.781Z,68.23
2023-04-27T07:46:08.817Z,68.23
2023-04-27T07:47:08.794Z,69.75
2023-04-27T07:48:08.812Z,70.26
2023-04-27T07:49:08.817Z,71.78
2023-04-27T07:50:08.829Z,71.41
2023-04-27T07:51:08.827Z,73.30
2023-04-27T07:52:08.832Z,70.83
2023-04-27T07:53:08.842Z,68.65
2023-04-27T07:54:08.851Z,69.21
2023-04-27T07:55:08.869Z,70.54
2023-04-27T07:56:08.894Z,72.16
2023-04-27T07:57:08.878Z,71.59
2023-04-27T07:58:08.881Z,71.31
2023-04-27T07:59:08.897Z,71.69
2023-04-27T08:00:08.912Z,70.49
2023-04-27T08:01:08.913Z,68.49
2023-04-27T08:02:19.134Z,69.54
2023-04-27T08:03:09.295Z,71.02
2023-04-27T08:04:09.135Z,70.68
2023-04-27T08:05:09.446Z,70.45
2023-04-27T08:06:09.383Z,70.54
2023-04-27T08:07:09.655Z,69.79
2023-04-27T08:08:08.992Z,71.15
2023-04-27T08:09:08.994Z,69.73
2023-04-27T08:10:09.004Z,69.82
2023-04-27T08:11:09.006Z,68.68
2023-04-27T08:12:09.052Z,68.59
2023-04-27T08:13:09.027Z,68.87
2023-04-27T08:14:09.056Z,70.20
2023-04-27T08:15:09.047Z,69.06
2023-04-27T08:16:09.072Z,68.21
2023-04-27T08:17:09.071Z,68.30
2023-04-27T08:18:09.166Z,68.49
2023-04-27T08:19:09.082Z,67.73
2023-04-27T08:20:09.090Z,67.79
2023-04-27T08:21:09.110Z,70.49
2023-04-27T08:22:09.116Z,69.63
2023-04-27T08:23:09.121Z,68.40
2023-04-27T08:24:09.128Z,68.49
2023-04-27T08:25:09.137Z,70.97
2023-04-27T08:26:09.141Z,69.67
2023-04-27T08:27:09.155Z,68.30
2023-04-27T08:28:09.214Z,68.24
2023-04-27T08:29:23.631Z,69.48
2023-04-27T08:30:09.184Z,69.10
2023-04-27T08:31:09.249Z,70.43
2023-04-27T08:32:09.200Z,70.24
2023-04-27T08:33:09.262Z,67.86
2023-04-27T08:34:09.213Z,67.76
2023-04-27T08:35:09.374Z,69.67
2023-04-27T08:36:09.248Z,71.03
2023-04-27T08:37:09.252Z,70.56
2023-04-27T08:38:09.268Z,69.70
2023-04-27T08:39:09.267Z,68.27
2023-04-27T08:40:09.275Z,67.99
2023-04-27T08:41:20.717Z,68.94
2023-04-27T08:42:09.298Z,68.56
2023-04-27T08:43:09.308Z,71.13
2023-04-27T08:44:09.331Z,69.42
2023-04-27T08:45:09.321Z,68.46
2023-04-27T08:46:09.353Z,68.56
2023-04-27T08:47:09.354Z,67.41
2023-04-27T08:48:09.413Z,67.51
2023-04-27T08:49:09.375Z,66.53
2023-04-27T08:50:09.383Z,66.14
2023-04-27T08:51:09.387Z,67.00
2023-04-27T08:52:09.395Z,68.24
2023-04-27T08:53:09.405Z,69.76
2023-04-27T08:54:09.414Z,68.84
2023-04-27T08:55:09.430Z,69.13
2023-04-27T08:56:09.439Z,67.89
2023-04-27T08:57:09.452Z,66.08
2023-04-27T08:58:09.451Z,68.37
2023-04-27T08:59:09.464Z,67.89
2023-04-27T09:00:09.488Z,68.37
2023-04-27T09:01:09.493Z,66.56
2023-04-27T09:02:09.506Z,67.61
2023-04-27T09:03:09.607Z,67.89
2023-04-27T09:04:09.590Z,68.46
2023-04-27T09:05:09.626Z,66.46
2023-04-27T09:06:09.571Z,67.70
2023-04-27T09:07:09.545Z,66.18
2023-04-27T09:08:09.552Z,66.18
2023-04-27T09:09:09.574Z,65.51
2023-04-27T09:10:09.570Z,66.18
2023-04-27T09:11:09.582Z,66.94
2023-04-27T09:12:09.591Z,66.66
2023-04-27T09:13:09.619Z,66.85
2023-04-27T09:14:09.609Z,65.77
2023-04-27T09:15:09.626Z,66.14
2023-04-27T09:16:09.737Z,67.57
2023-04-27T09:17:09.648Z,66.81
2023-04-27T09:18:09.657Z,66.81
2023-04-27T09:19:09.667Z,68.52
2023-04-27T09:20:09.676Z,67.86
2023-04-27T09:21:09.722Z,67.76
2023-04-27T09:22:09.690Z,67.86
2023-04-27T09:23:09.713Z,67.29
2023-04-27T09:24:09.718Z,67.99
2023-04-27T09:25:09.728Z,68.18
2023-04-27T09:26:09.741Z,67.70
2023-04-27T09:27:09.747Z,68.46
2023-04-27T09:28:09.757Z,66.94
2023-04-27T09:29:09.765Z,66.66
2023-04-27T09:30:09.780Z,68.50
2023-04-27T09:31:09.910Z,67.83
2023-04-27T09:32:09.828Z,65.61
2023-04-27T09:33:09.812Z,68.27
2023-04-27T09:34:09.814Z,66.46
2023-04-27T09:35:09.826Z,67.13
2023-04-27T09:36:09.836Z,67.70
2023-04-27T09:37:09.850Z,66.46
2023-04-27T09:38:09.858Z,65.80
2023-04-27T09:39:09.907Z,66.66
2023-04-27T09:40:09.890Z,66.11
2023-04-27T09:41:09.906Z,67.07
2023-04-27T09:42:09.897Z,65.32
2023-04-27T09:43:09.909Z,64.28
2023-04-27T09:44:09.922Z,64.75
2023-04-27T09:45:09.930Z,66.37
2023-04-27T09:46:09.969Z,66.37
2023-04-27T09:47:09.948Z,65.61
2023-04-27T09:48:09.974Z,68.40
2023-04-27T09:49:09.972Z,65.23
2023-04-27T09:50:09.984Z,63.80
2023-04-27T09:51:09.994Z,65.32
2023-04-27T09:52:10.003Z,67.13
2023-04-27T09:53:10.011Z,65.51
2023-04-27T09:54:10.035Z,65.77
2023-04-27T09:55:10.031Z,66.18
2023-04-27T09:56:10.036Z,67.61
2023-04-27T09:57:10.052Z,66.59
2023-04-27T09:58:10.062Z,67.74
2023-04-27T09:59:10.075Z,64.02
2023-04-27T10:00:10.086Z,63.04
2023-04-27T10:01:10.104Z,65.92
2023-04-27T10:02:20.969Z,65.83
2023-04-27T10:03:10.157Z,66.44
2023-04-27T10:04:10.303Z,62.05
2023-04-27T10:05:10.154Z,62.72
2023-04-27T10:06:10.142Z,61.48
2023-04-27T10:07:10.157Z,63.26
2023-04-27T10:08:10.196Z,68.85
2023-04-27T10:09:10.177Z,65.67
2023-04-27T10:10:10.181Z,64.24
2023-04-27T10:11:10.196Z,62.05
2023-04-27T10:12:10.224Z,64.53
2023-04-27T10:13:10.224Z,62.02
2023-04-27T10:14:10.236Z,63.20
2023-04-27T10:15:10.239Z,65.13
2023-04-27T10:16:10.285Z,66.56
2023-04-27T10:17:10.308Z,63.80
2023-04-27T10:18:10.301Z,62.81
2023-04-27T10:19:10.292Z,62.18
2023-04-27T10:20:10.326Z,65.52
2023-04-27T10:21:10.329Z,61.89
2023-04-27T10:22:10.318Z,60.62
2023-04-27T10:23:10.328Z,62.15
2023-04-27T10:24:10.356Z,62.24
2023-04-27T10:25:10.347Z,61.35
2023-04-27T10:26:10.364Z,62.49
2023-04-27T10:27:10.372Z,62.30
2023-04-27T10:28:10.391Z,62.81
2023-04-27T10:29:10.389Z,61.64
2023-04-27T10:30:10.409Z,63.00
2023-04-27T10:31:10.455Z,64.05
2023-04-27T10:32:10.434Z,63.39
2023-04-27T10:33:10.604Z,62.78
2023-04-27T10:34:10.461Z,64.59
2023-04-27T10:35:10.465Z,66.24
2023-04-27T10:36:10.500Z,66.18
2023-04-27T10:37:10.495Z,67.49
2023-04-27T10:38:10.519Z,62.08
2023-04-27T10:39:10.510Z,60.84
2023-04-27T10:40:10.528Z,63.32
2023-04-27T10:41:10.534Z,62.65
2023-04-27T10:42:10.550Z,61.60
2023-04-27T10:43:10.580Z,61.80
2023-04-27T10:44:10.579Z,61.80
2023-04-27T10:45:10.580Z,63.13
2023-04-27T10:46:10.644Z,62.75
2023-04-27T10:47:10.605Z,64.50
2023-04-27T10:48:10.674Z,63.35
2023-04-27T10:49:10.658Z,64.15
2023-04-27T10:50:10.643Z,60.68
2023-04-27T10:51:10.655Z,60.58
2023-04-27T10:52:10.682Z,59.51
2023-04-27T10:53:10.674Z,61.13
2023-04-27T10:54:10.704Z,61.51
2023-04-27T10:55:10.696Z,64.50
2023-04-27T10:56:10.721Z,62.40
2023-04-27T10:57:10.731Z,62.40
2023-04-27T10:58:10.737Z,62.78
2023-04-27T10:59:10.761Z,59.89
2023-04-27T11:00:10.767Z,60.75
2023-04-27T11:01:10.800Z,60.94
2023-04-27T11:02:10.880Z,63.73
2023-04-27T11:03:10.914Z,61.35
2023-04-27T11:04:10.830Z,64.15
2023-04-27T11:05:10.845Z,61.57
2023-04-27T11:06:10.832Z,59.47
2023-04-27T11:07:10.841Z,58.17
2023-04-27T11:08:10.888Z,58.14
2023-04-27T11:09:10.981Z,59.48
2023-04-27T11:10:10.928Z,62.46
2023-04-27T11:11:10.893Z,61.51
2023-04-27T11:12:10.916Z,62.88
2023-04-27T11:13:10.914Z,59.66
2023-04-27T11:14:10.935Z,59.38
2023-04-27T11:15:10.940Z,60.04
2023-04-27T11:16:10.982Z,58.23
2023-04-27T11:17:10.965Z,56.26
2023-04-27T11:18:10.993Z,58.20
2023-04-27T11:19:10.995Z,61.76
2023-04-27T11:20:11.008Z,61.10
2023-04-27T11:21:11.046Z,57.94
2023-04-27T11:22:11.030Z,58.39
2023-04-27T11:23:11.051Z,58.58
2023-04-27T11:24:13.203Z,60.21
2023-04-27T11:25:11.083Z,61.10
2023-04-27T11:26:11.099Z,59.95
2023-04-27T11:27:11.102Z,58.70
2023-04-27T11:28:11.107Z,56.77
2023-04-27T11:29:11.118Z,57.41
2023-04-27T11:30:11.134Z,58.36
2023-04-27T11:31:11.206Z,58.07
2023-04-27T11:32:11.156Z,59.73
2023-04-27T11:33:11.204Z,59.19
2023-04-27T11:34:11.190Z,59.66
2023-04-27T11:35:11.195Z,58.45
2023-04-27T11:36:11.207Z,55.49
2023-04-27T11:37:18.351Z,56.82
2023-04-27T11:38:11.231Z,55.61
2023-04-27T11:39:11.375Z,56.67
2023-04-27T11:40:11.280Z,55.90
2023-04-27T11:41:11.265Z,57.33
2023-04-27T11:42:11.283Z,56.69
2023-04-27T11:43:11.295Z,51.41
2023-04-27T11:44:11.317Z,53.10
2023-04-27T11:45:11.317Z,53.84
2023-04-27T11:46:11.431Z,56.51
2023-04-27T11:47:11.599Z,55.84
2023-04-27T11:48:11.394Z,56.73
2023-04-27T11:49:11.453Z,57.14
2023-04-27T11:50:11.402Z,55.61
2023-04-27T11:51:11.398Z,54.75
2023-04-27T11:52:11.417Z,55.90
2023-04-27T11:53:11.491Z,54.34
2023-04-27T11:54:11.457Z,54.63
2023-04-27T11:55:11.459Z,53.24
2023-04-27T11:56:11.500Z,54.70
2023-04-27T11:57:11.495Z,55.82
2023-04-27T11:58:11.495Z,60.27
2023-04-27T11:59:11.626Z,55.15
2023-04-27T12:00:11.771Z,56.51
2023-04-27T12:01:11.532Z,55.87
2023-04-27T12:02:11.594Z,52.72
2023-04-27T12:03:11.846Z,54.66
2023-04-27T12:04:11.842Z,54.27
2023-04-27T12:05:11.814Z,52.53
2023-04-27T12:06:31.805Z,53.74
2023-04-27T12:07:11.613Z,57.11
2023-04-27T12:08:11.632Z,56.47
2023-04-27T12:09:11.643Z,52.08
2023-04-27T12:10:11.661Z,51.89
2023-04-27T12:11:11.673Z,53.22
2023-04-27T12:12:11.707Z,51.19
2023-04-27T12:13:11.690Z,52.26
2023-04-27T12:14:11.861Z,51.67
2023-04-27T12:15:11.739Z,53.22
2023-04-27T12:16:11.772Z,51.21
2023-04-27T12:17:11.788Z,52.81
2023-04-27T12:18:11.784Z,52.26
2023-04-27T12:19:11.796Z,53.22
2023-04-27T12:20:11.793Z,52.08
2023-04-27T12:21:11.801Z,53.22
2023-04-27T12:22:11.828Z,52.75
2023-04-27T12:23:11.835Z,52.05
2023-04-27T12:24:12.159Z,53.32
2023-04-27T12:25:11.857Z,54.37
2023-04-27T12:26:14.444Z,54.27
2023-04-27T12:27:11.886Z,55.16
2023-04-27T12:28:11.918Z,53.13
2023-04-27T12:29:11.912Z,54.68
2023-04-27T12:30:11.947Z,54.59
2023-04-27T12:31:11.973Z,54.68
2023-04-27T12:32:11.965Z,55.47
2023-04-27T12:33:11.991Z,52.01
2023-04-27T12:34:12.243Z,50.90
2023-04-27T12:35:12.013Z,51.89
2023-04-27T12:36:12.023Z,52.17
2023-04-27T12:37:12.018Z,51.48
2023-04-27T12:38:12.047Z,52.15
2023-04-27T12:39:12.052Z,53.80
2023-04-27T12:40:12.137Z,54.08
2023-04-27T12:41:12.101Z,52.65
2023-04-27T12:42:12.094Z,52.91
2023-04-27T12:43:12.106Z,51.45
2023-04-27T12:44:12.307Z,53.67
2023-04-27T12:45:12.145Z,53.74
2023-04-27T12:46:12.229Z,54.82
2023-04-27T12:47:20.090Z,52.81
2023-04-27T12:48:12.221Z,54.08
2023-04-27T12:49:12.190Z,53.13
2023-04-27T12:50:12.245Z,53.06
2023-04-27T12:51:12.220Z,55.16
2023-04-27T12:52:12.231Z,55.74